createdAt,value
2023-03-02T00:09:18.654Z,99199.15
2023-03-02T00:12:10.239Z,99200.67
2023-03-02T00:14:49.060Z,99199.38
2023-03-02T00:21:20.177Z,99195.21
2023-03-02T00:33:34.758Z,99194.23
2023-03-02T00:36:29.542Z,99194.80
2023-03-02T00:39:22.089Z,99194.05
2023-03-02T00:41:57.094Z,99191.73
2023-03-02T00:44:31.128Z,99185.76
2023-03-02T00:51:35.148Z,99181.45
2023-03-02T00:54:07.753Z,99178.64
2023-03-02T00:56:47.316Z,99178.80
2023-03-02T01:03:22.880Z,99175.49
2023-03-02T01:15:26.348Z,99170.92
2023-03-02T01:18:43.784Z,99169.16
2023-03-02T01:22:12.177Z,99164.66
2023-03-02T01:24:44.814Z,99161.91
2023-03-02T01:27:39.852Z,99153.98
2023-03-02T01:30:14.584Z,99150.33
2023-03-02T01:33:36.476Z,99148.95
2023-03-02T01:36:36.497Z,99152.77
2023-03-02T01:39:16.087Z,99151.73
2023-03-02T01:41:49.532Z,99147.98
2023-03-02T01:49:16.807Z,99141.98
2023-03-02T01:52:48.861Z,99140.77
2023-03-02T01:59:50.063Z,99132.25
2023-03-02T02:02:22.648Z,99129.86
2023-03-02T02:09:21.948Z,99123.17
2023-03-02T02:12:43.002Z,99123.02
2023-03-02T02:15:22.435Z,99122.55
2023-03-02T02:17:55.779Z,99125.59
2023-03-02T02:33:26.698Z,99110.27
2023-03-02T02:41:14.927Z,99102.95
2023-03-02T03:06:48.601Z,99095.27
2023-03-02T03:18:07.385Z,99087.41
2023-03-02T03:20:44.245Z,99090.17
2023-03-02T03:25:08.001Z,99084.48
2023-03-02T03:28:52.593Z,99080.60
2023-03-02T03:31:25.640Z,99074.77
2023-03-02T03:34:00.710Z,99070.10
2023-03-02T03:37:57.234Z,99067.89
2023-03-02T03:40:37.337Z,99061.73
2023-03-02T03:43:09.990Z,99061.39
2023-03-02T03:50:14.194Z,99057.64
2023-03-02T03:52:47.311Z,99052.83
2023-03-02T03:59:41.408Z,99053.18
2023-03-02T04:07:07.675Z,99054.57
2023-03-02T04:09:41.837Z,99055.23
2023-03-02T04:13:23.314Z,99049.89
2023-03-02T04:16:43.906Z,99053.36
2023-03-02T04:19:15.037Z,99055.42
2023-03-02T04:21:51.033Z,99055.15
2023-03-02T04:25:12.935Z,99051.08
2023-03-02T04:27:46.254Z,99052.12
2023-03-02T04:30:29.953Z,99054.04
2023-03-02T04:33:05.418Z,99054.56
2023-03-02T04:35:39.563Z,99060.09
2023-03-02T04:38:12.534Z,99058.72
2023-03-02T04:40:46.182Z,99056.17
2023-03-02T04:43:26.622Z,99057.58
2023-03-02T04:45:59.707Z,99055.69
2023-03-02T04:48:38.313Z,99055.52
2023-03-02T04:55:41.896Z,99052.77
2023-03-02T05:07:10.853Z,99044.10
2023-03-02T05:10:33.176Z,99047.20
2023-03-02T05:13:12.403Z,99045.65
2023-03-02T05:19:40.332Z,99053.00
2023-03-02T05:22:12.588Z,99058.69
2023-03-02T05:24:51.319Z,99060.77
2023-03-02T05:27:23.845Z,99063.52
2023-03-02T05:29:56.173Z,99067.64
2023-03-02T05:33:10.339Z,99070.04
2023-03-02T05:35:43.188Z,99066.06
2023-03-02T05:38:57.297Z,99067.06
2023-03-02T05:41:29.866Z,99067.19
2023-03-02T05:44:43.016Z,99067.84
2023-03-02T05:47:15.707Z,99063.29
2023-03-02T05:49:54.281Z,99064.45
2023-03-02T05:52:26.607Z,99065.27
2023-03-02T05:59:31.307Z,99067.95
2023-03-02T06:02:04.444Z,99064.83
2023-03-02T06:04:44.532Z,99067.90
2023-03-02T06:07:17.389Z,99070.80
2023-03-02T06:09:56.341Z,99070.41
2023-03-02T06:12:30.495Z,99071.73
2023-03-02T06:15:11.012Z,99073.38
2023-03-02T06:17:44.018Z,99075.43
2023-03-02T06:24:17.287Z,99080.95
2023-03-02T06:26:49.499Z,99082.02
2023-03-02T06:29:29.615Z,99077.05
2023-03-02T06:32:10.605Z,99075.89
2023-03-02T06:34:43.114Z,99077.99
2023-03-02T06:37:15.613Z,99078.98
2023-03-02T06:39:54.669Z,99077.22
2023-03-02T06:42:53.944Z,99072.01
2023-03-02T06:45:40.869Z,99070.88
2023-03-02T06:48:13.189Z,99071.55
2023-03-02T06:50:45.777Z,99069.44
2023-03-02T06:58:37.844Z,99077.98
2023-03-02T07:01:10.264Z,99078.30
2023-03-02T07:04:37.096Z,99081.73
2023-03-02T07:07:15.411Z,99076.20
2023-03-02T07:09:47.618Z,99075.80
2023-03-02T07:12:32.873Z,99075.45
2023-03-02T07:15:14.359Z,99067.80
2023-03-02T07:18:35.283Z,99059.02
2023-03-02T07:21:10.066Z,99025.34
2023-03-02T07:24:01.431Z,98997.52
2023-03-02T07:26:34.011Z,98991.50
2023-03-02T07:29:08.571Z,99006.52
2023-03-02T07:33:03.802Z,99013.27
2023-03-02T07:36:38.556Z,98996.68
2023-03-02T07:39:12.298Z,98991.70
2023-03-02T07:41:44.681Z,98982.87
2023-03-02T07:44:24.560Z,98965.45
2023-03-02T07:46:57.586Z,98963.27
2023-03-02T07:58:35.167Z,98965.60
2023-03-02T08:02:13.683Z,98960.85
2023-03-02T08:04:48.729Z,98958.59
2023-03-02T08:07:21.046Z,98951.77
2023-03-02T08:09:53.698Z,98951.83
2023-03-02T08:12:32.737Z,98951.69
2023-03-02T08:15:46.075Z,98955.19
2023-03-02T08:18:18.794Z,98948.09
2023-03-02T08:21:37.050Z,98949.23
2023-03-02T08:24:11.230Z,98943.34
2023-03-02T08:26:43.434Z,98943.63
2023-03-02T08:29:24.638Z,98948.66
2023-03-02T08:32:21.690Z,98947.51
2023-03-02T08:38:56.820Z,98943.41
2023-03-02T08:41:31.901Z,98943.10
2023-03-02T08:45:57.866Z,98944.88
2023-03-02T08:48:33.318Z,98948.05
2023-03-02T08:51:56.501Z,98952.36
2023-03-02T08:58:37.886Z,98952.63
2023-03-02T09:05:40.949Z,98948.54
2023-03-02T09:09:07.066Z,98948.70
2023-03-02T09:11:40.071Z,98948.73
2023-03-02T09:14:12.447Z,98953.16
2023-03-02T09:16:45.443Z,98948.18
2023-03-02T09:24:11.463Z,98950.81
2023-03-02T09:30:53.860Z,98943.40
2023-03-02T09:34:15.285Z,98956.97
2023-03-02T09:46:49.088Z,98950.86
2023-03-02T09:57:41.623Z,98946.05
2023-03-02T10:04:45.497Z,98947.62
2023-03-02T10:11:47.988Z,98939.95
2023-03-02T10:14:26.647Z,98940.41
2023-03-02T10:25:43.724Z,98920.71
2023-03-02T10:32:41.151Z,98910.89
2023-03-02T10:39:42.595Z,98905.35
2023-03-02T10:42:23.688Z,98905.59
2023-03-02T10:45:07.248Z,98904.73
2023-03-02T10:52:32.156Z,98903.09
2023-03-02T11:03:05.804Z,98888.43
2023-03-02T11:06:36.073Z,98883.84
2023-03-02T11:16:35.802Z,98872.73
2023-03-02T11:23:32.588Z,98866.39
2023-03-02T11:26:48.190Z,98866.23
2023-03-02T11:29:36.692Z,98862.69
2023-03-02T11:48:34.584Z,98838.77
2023-03-02T11:51:23.186Z,98836.80
2023-03-02T11:53:58.825Z,98835.62
2023-03-02T11:57:51.612Z,98835.45
2023-03-02T12:05:15.549Z,98821.75
2023-03-02T12:12:43.103Z,98816.16
2023-03-02T12:20:37.528Z,98810.22
2023-03-02T12:27:56.097Z,98797.09
2023-03-02T12:30:32.681Z,98794.59
2023-03-02T12:37:57.972Z,98787.06
2023-03-02T12:41:13.266Z,98784.16
2023-03-02T12:48:33.078Z,98780.73
2023-03-02T12:51:07.025Z,98778.92
2023-03-02T12:53:41.260Z,98777.55
2023-03-02T13:09:58.512Z,98760.09
2023-03-02T13:13:22.438Z,98754.92
2023-03-02T13:15:57.884Z,98750.29
2023-03-02T13:19:20.549Z,98750.37
2023-03-02T13:25:55.910Z,98738.50
2023-03-02T13:29:23.213Z,98735.95
2023-03-02T13:32:40.229Z,98732.66
2023-03-02T13:36:09.808Z,98725.65
2023-03-02T13:39:09.856Z,98726.63
2023-03-02T13:47:30.444Z,98718.77
2023-03-02T13:50:39.673Z,98712.67
2023-03-02T14:01:38.669Z,98707.08
2023-03-02T14:04:14.390Z,98704.73
2023-03-02T14:07:47.285Z,98701.78
2023-03-02T14:10:21.810Z,98694.45
2023-03-02T14:14:30.333Z,98697.45
2023-03-02T14:17:03.086Z,98694.29
2023-03-02T14:19:35.393Z,98692.01
2023-03-02T14:22:14.204Z,98692.92
2023-03-02T14:24:47.058Z,98691.02
2023-03-02T14:27:30.822Z,98685.16
2023-03-02T14:30:03.537Z,98683.02
2023-03-02T14:32:35.916Z,98681.80
2023-03-02T14:40:19.370Z,98677.98
2023-03-02T14:42:53.325Z,98673.80
2023-03-02T14:45:25.716Z,98672.23
2023-03-02T14:47:58.633Z,98678.05
2023-03-02T14:51:02.685Z,98674.53
2023-03-02T14:53:36.697Z,98673.59
2023-03-02T14:56:11.434Z,98673.00
2023-03-02T15:06:41.543Z,98667.08
2023-03-02T15:09:14.484Z,98671.73
2023-03-02T15:11:47.218Z,98674.13
2023-03-02T15:14:19.645Z,98674.30
2023-03-02T15:16:52.027Z,98673.60
2023-03-02T15:19:24.700Z,98675.69
2023-03-02T15:21:58.411Z,98678.30
2023-03-02T15:24:33.167Z,98680.38
2023-03-02T15:27:38.492Z,98684.34
2023-03-02T15:30:13.117Z,98684.26
2023-03-02T15:32:45.673Z,98682.95
2023-03-02T15:35:18.631Z,98679.90
2023-03-02T15:37:51.188Z,98683.59
2023-03-02T15:40:23.657Z,98682.67
2023-03-02T15:42:56.124Z,98679.86
2023-03-02T15:45:29.013Z,98680.75
2023-03-02T15:48:01.410Z,98677.23
2023-03-02T15:50:33.703Z,98679.94
2023-03-02T15:53:12.361Z,98681.84
2023-03-02T15:55:44.796Z,98682.06
2023-03-02T15:58:17.956Z,98679.71
2023-03-02T16:00:50.575Z,98680.59
2023-03-02T16:03:23.714Z,98687.76
2023-03-02T16:06:00.554Z,98687.98
2023-03-02T16:08:33.168Z,98686.02
2023-03-02T16:11:08.297Z,98688.00
2023-03-02T16:13:40.679Z,98691.17
2023-03-02T16:16:13.270Z,98695.28
2023-03-02T16:18:55.847Z,98691.61
2023-03-02T16:21:29.604Z,98692.00
2023-03-02T16:24:04.835Z,98693.36
2023-03-02T16:26:38.753Z,98694.17
2023-03-02T16:29:12.902Z,98692.98
2023-03-02T16:31:48.498Z,98695.34
2023-03-02T16:34:20.880Z,98700.02
2023-03-02T16:36:53.155Z,98706.55
2023-03-02T16:39:25.943Z,98709.98
2023-03-02T16:41:58.339Z,98713.15
2023-03-02T16:44:30.823Z,98717.58
2023-03-02T16:47:03.551Z,98715.49
2023-03-02T16:49:35.969Z,98717.48
2023-03-02T16:52:08.633Z,98718.94
2023-03-02T16:54:40.990Z,98716.63
2023-03-02T16:57:32.771Z,98720.11
2023-03-02T17:00:06.205Z,98724.23
2023-03-02T17:02:41.660Z,98725.11
2023-03-02T17:05:16.551Z,98724.77
2023-03-02T17:07:49.394Z,98728.66
2023-03-02T17:10:23.493Z,98728.61
2023-03-02T17:12:55.871Z,98728.74
2023-03-02T17:15:28.193Z,98729.66
2023-03-02T17:18:00.745Z,98734.38
2023-03-02T17:20:36.830Z,98736.80
2023-03-02T17:23:11.957Z,98736.84
2023-03-02T17:25:44.569Z,98737.25
2023-03-02T17:28:17.217Z,98741.05
2023-03-02T17:30:50.215Z,98744.13
2023-03-02T17:33:22.632Z,98745.48
2023-03-02T17:35:55.045Z,98748.14
2023-03-02T17:38:27.544Z,98753.82
2023-03-02T17:41:04.711Z,98753.00
2023-03-02T17:43:42.309Z,98751.88
2023-03-02T17:46:20.363Z,98752.96
2023-03-02T17:48:55.380Z,98751.67
2023-03-02T17:51:29.180Z,98752.86
2023-03-02T17:54:01.458Z,98746.39
2023-03-02T17:56:49.872Z,98748.35
2023-03-02T17:59:22.332Z,98747.52
2023-03-02T18:01:54.626Z,98745.57
2023-03-02T18:04:27.143Z,98748.69
2023-03-02T18:07:01.737Z,98748.59
2023-03-02T18:09:34.089Z,98750.18
2023-03-02T18:12:07.806Z,98745.58
2023-03-02T18:15:08.102Z,98746.73
2023-03-02T18:17:41.534Z,98745.52
2023-03-02T18:20:15.963Z,98745.98
2023-03-02T18:22:48.254Z,98740.77
2023-03-02T18:25:20.616Z,98740.48
2023-03-02T18:27:56.054Z,98746.08
2023-03-02T18:30:28.580Z,98746.67
2023-03-02T18:33:01.485Z,98743.02
2023-03-02T18:35:34.528Z,98746.62
2023-03-02T18:38:06.969Z,98748.06
2023-03-02T18:40:40.798Z,98746.00
2023-03-02T18:43:13.284Z,98750.66
2023-03-02T18:46:23.225Z,98751.02
2023-03-02T18:48:57.098Z,98750.09
2023-03-02T18:51:29.869Z,98747.95
2023-03-02T18:54:02.522Z,98747.42
2023-03-02T18:56:34.860Z,98747.43
2023-03-02T18:59:07.694Z,98751.20
2023-03-02T19:01:40.516Z,98756.02
2023-03-02T19:04:16.821Z,98759.85
2023-03-02T19:06:49.918Z,98759.63
2023-03-02T19:09:22.219Z,98761.83
2023-03-02T19:11:54.562Z,98760.17
2023-03-02T19:14:26.823Z,98760.45
2023-03-02T19:17:01.788Z,98759.59
2023-03-02T19:19:35.530Z,98757.71
2023-03-02T19:22:09.176Z,98755.31
2023-03-02T19:24:41.666Z,98755.36
2023-03-02T19:27:14.229Z,98753.90
2023-03-02T19:29:46.668Z,98755.17
2023-03-02T19:32:20.558Z,98756.88
2023-03-02T19:34:53.210Z,98766.16
2023-03-02T19:37:25.558Z,98765.61
2023-03-02T19:40:00.459Z,98767.64
2023-03-02T19:42:39.393Z,98766.30
2023-03-02T19:45:16.431Z,98764.62
2023-03-02T19:47:49.181Z,98767.91
2023-03-02T19:50:21.740Z,98767.05
2023-03-02T19:52:54.922Z,98765.25
2023-03-02T19:55:28.270Z,98767.58
2023-03-02T19:58:02.140Z,98769.88
2023-03-02T20:00:38.862Z,98761.79
2023-03-02T20:03:11.128Z,98763.31
2023-03-02T20:10:41.530Z,98764.21
2023-03-02T20:13:51.368Z,98767.14
2023-03-02T20:16:31.473Z,98764.89
2023-03-02T20:23:54.524Z,98757.04
2023-03-02T20:26:27.684Z,98758.66
2023-03-02T20:29:56.193Z,98755.59
2023-03-02T20:32:28.665Z,98759.38
2023-03-02T20:35:00.991Z,98758.17
2023-03-02T20:55:37.997Z,98736.43
2023-03-02T20:58:10.958Z,98736.27
2023-03-02T21:05:37.473Z,98729.42
2023-03-02T21:08:11.390Z,98727.17
2023-03-02T21:10:50.732Z,98730.85
2023-03-02T21:14:21.058Z,98731.92
2023-03-02T21:17:15.267Z,98727.88
2023-03-02T21:19:47.646Z,98724.06
2023-03-02T21:22:47.191Z,98722.04
2023-03-02T21:37:09.860Z,98712.80
2023-03-02T21:39:48.778Z,98708.48
2023-03-02T21:42:21.456Z,98708.48
2023-03-02T21:45:25.507Z,98702.86
2023-03-02T21:48:05.233Z,98701.18
2023-03-02T21:50:39.859Z,98702.58
2023-03-02T21:54:49.442Z,98699.10
2023-03-02T21:57:21.898Z,98691.49
2023-03-02T22:08:51.245Z,98680.68
2023-03-02T22:11:26.055Z,98679.30
2023-03-02T22:15:50.764Z,98678.27
2023-03-02T22:22:59.439Z,98678.66
2023-03-02T22:25:33.906Z,98676.36
2023-03-02T22:32:39.639Z,98673.65
2023-03-02T22:35:30.551Z,98669.39
2023-03-02T22:43:14.498Z,98668.13
2023-03-02T22:45:49.809Z,98667.39
2023-03-02T22:49:19.529Z,98666.52
2023-03-02T22:57:42.477Z,98667.75
2023-03-02T23:04:59.525Z,98660.16
2023-03-02T23:11:56.272Z,98655.02
2023-03-02T23:15:30.635Z,98652.80
2023-03-02T23:31:05.108Z,98640.70
2023-03-02T23:34:47.383Z,98637.21
2023-03-02T23:37:20.335Z,98625.84
2023-03-02T23:39:52.965Z,98629.17
2023-03-02T23:43:10.626Z,98629.05
2023-03-02T23:45:42.955Z,98630.96
2023-03-02T23:48:16.621Z,98628.69
2023-03-02T23:50:57.948Z,98631.60
2023-03-02T23:54:13.365Z,98632.83
